Time;durP1;ratioP1;P1;durP2;ratioP2;P2;SDS_P1;SDS_P2;PMS_P1;PMS_P2;Temp;Humidity;BMP_temperature;BMP_pressure;BME280_temperature;BME280_humidity;BME280_pressure;Samples;Min_cycle;Max_cycle;Signal;HPM_P1;HPM_P2
2023/04/17 00:01:50;;;;;;;6.47;2.70;;;12.90;99.90;;;;;;5092364;28;20036;-61
2023/04/17 00:04:16;;;;;;;4.13;2.63;;;12.90;99.90;;;;;;5094100;28;20043;-60
2023/04/17 00:06:44;;;;;;;6.97;2.90;;;12.90;99.90;;;;;;5093524;28;20513;-60
2023/04/17 00:09:10;;;;;;;4.63;2.35;;;12.90;99.90;;;;;;5093464;28;20102;-60
2023/04/17 00:11:37;;;;;;;7.78;2.45;;;12.90;99.90;;;;;;5093535;28;20036;-61
2023/04/17 00:14:04;;;;;;;4.63;2.72;;;12.90;99.90;;;;;;5093472;28;20048;-59
2023/04/17 00:16:31;;;;;;;6.32;2.30;;;12.90;99.90;;;;;;5093947;28;20082;-59
2023/04/17 00:18:58;;;;;;;4.55;2.20;;;12.90;99.90;;;;;;5093842;28;20558;-59
2023/04/17 00:21:25;;;;;;;6.97;3.35;;;12.90;99.90;;;;;;5093572;28;20071;-60
2023/04/17 00:23:52;;;;;;;4.38;2.42;;;12.80;99.90;;;;;;5093024;28;20043;-60
2023/04/17 00:26:18;;;;;;;5.78;2.50;;;12.90;99.90;;;;;;5093826;28;20130;-60
2023/04/17 00:28:49;;;;;;;4.90;2.60;;;12.80;99.90;;;;;;5093522;28;20056;-59
2023/04/17 00:31:16;;;;;;;6.63;2.53;;;12.80;99.90;;;;;;5093146;28;20135;-59
2023/04/17 00:33:42;;;;;;;6.13;2.63;;;12.80;99.90;;;;;;5094024;28;20074;-59
2023/04/17 00:36:12;;;;;;;4.90;2.88;;;12.80;99.90;;;;;;5093749;28;20478;-60
2023/04/17 00:38:39;;;;;;;6.03;2.75;;;12.80;99.90;;;;;;5093847;28;20040;-60
2023/04/17 00:41:05;;;;;;;5.43;3.00;;;12.80;99.90;;;;;;5093315;28;20050;-59
2023/04/17 00:43:32;;;;;;;4.30;2.83;;;12.80;99.90;;;;;;5093792;28;20123;-60
2023/04/17 00:45:59;;;;;;;7.28;2.90;;;12.70;99.90;;;;;;5093548;28;20376;-60
2023/04/17 00:48:26;;;;;;;7.03;3.15;;;12.80;99.90;;;;;;5093658;28;20140;-60
2023/04/17 00:50:54;;;;;;;4.80;2.97;;;12.70;99.90;;;;;;5093002;28;20047;-60
2023/04/17 00:53:20;;;;;;;8.73;2.90;;;12.70;99.90;;;;;;5093750;28;20483;-59
2023/04/17 00:55:47;;;;;;;5.18;2.60;;;12.70;99.90;;;;;;5096620;28;20044;-60
2023/04/17 00:58:14;;;;;;;7.18;2.80;;;12.70;99.90;;;;;;5097455;28;20047;-59
2023/04/17 01:00:41;;;;;;;7.75;2.90;;;12.70;99.90;;;;;;5096569;28;20051;-60
2023/04/17 01:03:08;;;;;;;6.85;2.83;;;12.70;99.90;;;;;;5096014;28;20091;-59
2023/04/17 01:05:37;;;;;;;6.75;3.00;;;12.70;99.90;;;;;;5095570;28;20052;-59
2023/04/17 01:08:04;;;;;;;6.28;2.88;;;12.80;99.90;;;;;;5096893;28;20032;-59
2023/04/17 01:10:30;;;;;;;11.80;7.03;;;12.70;99.90;;;;;;5096884;28;20066;-60
2023/04/17 01:12:57;;;;;;;13.52;6.55;;;12.70;99.90;;;;;;5095152;28;20105;-60
2023/04/17 01:15:24;;;;;;;10.52;7.57;;;12.70;99.90;;;;;;5095770;28;20089;-60
2023/04/17 01:17:51;;;;;;;11.68;8.07;;;12.70;99.90;;;;;;5095231;28;20052;-60
2023/04/17 01:20:18;;;;;;;13.93;9.15;;;12.70;99.90;;;;;;5094953;28;20571;-60
2023/04/17 01:22:45;;;;;;;11.93;9.30;;;12.60;99.90;;;;;;5096535;28;20089;-61
2023/04/17 01:25:11;;;;;;;17.15;11.60;;;12.70;99.90;;;;;;5096105;28;20135;-59
2023/04/17 01:27:38;;;;;;;18.50;12.40;;;12.60;99.90;;;;;;5094869;28;20090;-59
2023/04/17 01:30:07;;;;;;;19.60;12.18;;;12.60;99.90;;;;;;5095130;28;20036;-58
2023/04/17 01:32:40;;;;;;;14.90;11.15;;;12.60;99.90;;;;;;5095109;28;20055;-60
2023/04/17 01:35:07;;;;;;;16.83;12.68;;;12.60;99.90;;;;;;5094952;28;20052;-59
2023/04/17 01:37:34;;;;;;;16.00;12.65;;;12.60;99.90;;;;;;5096032;28;20047;-60
2023/04/17 01:40:01;;;;;;;19.23;11.85;;;12.50;99.90;;;;;;5094673;28;20044;-59
2023/04/17 01:42:28;;;;;;;18.13;13.52;;;12.60;99.90;;;;;;5095029;28;20040;-58
2023/04/17 01:44:54;;;;;;;20.10;14.32;;;12.50;99.90;;;;;;5095197;28;20044;-60
2023/04/17 01:47:21;;;;;;;17.15;14.57;;;12.50;99.90;;;;;;5095191;28;20442;-60
2023/04/17 01:49:48;;;;;;;20.23;15.18;;;12.50;99.90;;;;;;5094464;28;20097;-60
2023/04/17 01:52:15;;;;;;;21.80;15.30;;;12.50;99.90;;;;;;5095759;28;20047;-60
2023/04/17 01:54:41;;;;;;;25.92;17.08;;;12.40;99.90;;;;;;5095065;28;20097;-59
2023/04/17 01:57:08;;;;;;;24.00;15.60;;;12.40;99.90;;;;;;5094736;28;20075;-59
2023/04/17 01:59:35;;;;;;;22.15;16.55;;;12.40;99.90;;;;;;5094167;28;20048;-59
2023/04/17 02:02:02;;;;;;;23.48;17.10;;;12.40;99.90;;;;;;5094482;28;20051;-60
2023/04/17 02:04:29;;;;;;;23.35;16.77;;;12.40;99.90;;;;;;5094108;28;20052;-60
2023/04/17 02:06:56;;;;;;;28.05;17.92;;;12.40;99.90;;;;;;5094136;28;20040;-57
2023/04/17 02:09:22;;;;;;;25.05;16.88;;;12.40;99.90;;;;;;5093946;28;20043;-60
2023/04/17 02:11:49;;;;;;;27.35;17.10;;;12.30;99.90;;;;;;5095848;28;20417;-59
2023/04/17 02:14:17;;;;;;;22.15;16.98;;;12.30;99.90;;;;;;5096089;28;20454;-59
2023/04/17 02:16:47;;;;;;;22.95;17.25;;;12.30;99.90;;;;;;5093967;28;20075;-59
2023/04/17 02:19:14;;;;;;;20.45;16.50;;;12.30;99.90;;;;;;5095306;28;20039;-60
2023/04/17 02:21:41;;;;;;;20.80;17.00;;;12.30;99.90;;;;;;5093760;28;20094;-59
2023/04/17 02:24:07;;;;;;;22.52;16.52;;;12.30;99.90;;;;;;5095648;28;20093;-59
2023/04/17 02:26:35;;;;;;;22.95;16.92;;;12.30;99.90;;;;;;5094356;28;20082;-60
2023/04/17 02:29:03;;;;;;;27.70;17.50;;;12.30;99.90;;;;;;5095204;28;20044;-60
2023/04/17 02:31:30;;;;;;;23.92;17.67;;;12.20;99.90;;;;;;5095278;28;20048;-59
2023/04/17 02:33:57;;;;;;;26.35;17.85;;;12.20;99.90;;;;;;5094021;28;20067;-60
2023/04/17 02:36:26;;;;;;;23.17;17.20;;;12.20;99.90;;;;;;5093619;28;20043;-60
2023/04/17 02:38:53;;;;;;;22.00;17.10;;;12.10;99.90;;;;;;5093880;28;20097;-60
2023/04/17 02:41:19;;;;;;;22.80;16.60;;;12.10;99.90;;;;;;5093670;28;20036;-60
2023/04/17 02:43:46;;;;;;;20.45;16.80;;;12.10;99.90;;;;;;5113542;28;20069;-59
2023/04/17 02:46:16;;;;;;;24.88;17.05;;;12.10;99.90;;;;;;5113874;28;20127;-59
2023/04/17 02:48:42;;;;;;;23.55;16.77;;;12.10;99.90;;;;;;5113758;28;20471;-59
2023/04/17 02:51:09;;;;;;;23.48;16.60;;;12.10;99.90;;;;;;5114328;28;20466;-58
2023/04/17 02:53:36;;;;;;;26.23;17.63;;;12.00;99.90;;;;;;5113663;28;20056;-58
2023/04/17 02:56:03;;;;;;;22.30;16.42;;;12.00;99.90;;;;;;5114850;28;20040;-60
2023/04/17 02:58:32;;;;;;;23.73;16.73;;;12.00;99.90;;;;;;5113756;28;20054;-59
2023/04/17 03:00:58;;;;;;;21.38;16.35;;;12.00;99.90;;;;;;5113714;28;20470;-59
2023/04/17 03:03:29;;;;;;;25.50;16.42;;;12.00;99.90;;;;;;5114026;28;20036;-59
2023/04/17 03:05:57;;;;;;;22.88;17.42;;;12.00;99.90;;;;;;5113718;28;20512;-60
2023/04/17 03:08:23;;;;;;;23.33;18.10;;;12.00;99.90;;;;;;5113748;28;20493;-59
2023/04/17 03:10:50;;;;;;;26.83;18.35;;;11.90;99.90;;;;;;5113235;28;20036;-59
2023/04/17 03:13:17;;;;;;;26.70;18.65;;;11.90;99.90;;;;;;5113300;28;20075;-59
2023/04/17 03:15:45;;;;;;;25.27;19.00;;;11.80;99.90;;;;;;5112898;28;20071;-59
2023/04/17 03:18:11;;;;;;;23.45;19.23;;;11.80;99.90;;;;;;5114666;28;20073;-59
2023/04/17 03:20:38;;;;;;;24.85;19.65;;;11.80;99.90;;;;;;5113278;28;20047;-60
2023/04/17 03:23:05;;;;;;;25.27;18.70;;;11.70;99.90;;;;;;5114984;28;20089;-59
2023/04/17 03:25:32;;;;;;;25.95;19.10;;;11.80;99.90;;;;;;5112968;28;20088;-59
2023/04/17 03:28:00;;;;;;;26.67;20.10;;;11.70;99.90;;;;;;5113538;28;20050;-59
2023/04/17 03:30:30;;;;;;;28.13;20.08;;;11.70;99.90;;;;;;5113636;28;20083;-60
2023/04/17 03:33:01;;;;;;;31.50;20.48;;;11.70;99.90;;;;;;5114721;28;20150;-60
2023/04/17 03:35:30;;;;;;;27.65;21.20;;;11.70;99.90;;;;;;5113011;28;20527;-59
2023/04/17 03:37:56;;;;;;;28.40;21.30;;;11.60;99.90;;;;;;5114341;28;20055;-59
2023/04/17 03:40:23;;;;;;;31.45;20.98;;;11.60;99.90;;;;;;5114290;28;20047;-59
2023/04/17 03:42:50;;;;;;;30.08;21.63;;;11.60;99.90;;;;;;5113139;28;20088;-60
2023/04/17 03:45:17;;;;;;;26.60;20.83;;;11.60;99.90;;;;;;5113525;28;20043;-60
2023/04/17 03:47:44;;;;;;;27.05;20.63;;;11.60;99.90;;;;;;5112725;28;20032;-60
2023/04/17 03:50:11;;;;;;;27.02;21.75;;;11.60;99.90;;;;;;5112735;28;20398;-60
2023/04/17 03:52:44;;;;;;;27.77;22.27;;;11.50;99.90;;;;;;5112830;28;20044;-60
2023/04/17 03:55:12;;;;;;;27.77;20.50;;;11.50;99.90;;;;;;5112607;28;20052;-60
2023/04/17 03:57:40;;;;;;;31.55;22.92;;;11.60;99.90;;;;;;5112790;28;20443;-59
2023/04/17 04:00:09;;;;;;;28.10;22.15;;;11.60;99.90;;;;;;5112588;28;20044;-59
2023/04/17 04:02:47;;;;;;;28.58;22.65;;;11.50;99.90;;;;;;5112463;28;20494;-59
2023/04/17 04:05:18;;;;;;;30.65;23.05;;;11.50;99.90;;;;;;5112472;28;20134;-59
2023/04/17 04:07:46;;;;;;;32.00;22.27;;;11.50;99.90;;;;;;5113103;28;20052;-59
2023/04/17 04:10:20;;;;;;;27.15;22.77;;;11.50;99.90;;;;;;5112662;28;20040;-59
2023/04/17 04:12:47;;;;;;;29.25;23.63;;;11.50;99.90;;;;;;5112133;28;20135;-59
2023/04/17 04:15:14;;;;;;;30.27;24.27;;;11.40;99.90;;;;;;5112514;28;20040;-59
2023/04/17 04:17:44;;;;;;;34.30;25.00;;;11.40;99.90;;;;;;5112552;28;20486;-58
2023/04/17 04:20:11;;;;;;;28.20;23.48;;;11.40;99.90;;;;;;5112552;28;20040;-60
2023/04/17 04:22:40;;;;;;;30.10;25.15;;;11.40;99.90;;;;;;5112828;28;20052;-59
2023/04/17 04:25:07;;;;;;;31.23;24.58;;;11.40;99.90;;;;;;5112394;28;20043;-60
2023/04/17 04:27:48;;;;;;;30.63;25.08;;;11.40;99.90;;;;;;5115576;28;20047;-59
2023/04/17 04:30:20;;;;;;;33.67;25.88;;;11.30;99.90;;;;;;5117040;28;20092;-59
2023/04/17 04:32:50;;;;;;;32.13;25.17;;;11.30;99.90;;;;;;5116689;28;20047;-60
2023/04/17 04:35:17;;;;;;;40.63;25.48;;;11.30;99.90;;;;;;5116243;28;20052;-59
2023/04/17 04:37:47;;;;;;;30.40;24.83;;;11.30;99.90;;;;;;5116941;28;20067;-58
2023/04/17 04:40:14;;;;;;;32.00;25.90;;;11.30;99.90;;;;;;5116647;28;20051;-59
2023/04/17 04:42:41;;;;;;;32.80;25.55;;;11.30;99.90;;;;;;5116191;28;20448;-58
2023/04/17 04:45:14;;;;;;;32.97;25.77;;;11.30;99.90;;;;;;5116639;28;20070;-59
2023/04/17 04:47:42;;;;;;;31.58;24.67;;;11.30;99.90;;;;;;5117399;28;20044;-60
2023/04/17 04:50:09;;;;;;;31.23;25.73;;;11.30;99.90;;;;;;5117504;28;20115;-60
2023/04/17 04:52:36;;;;;;;32.22;26.05;;;11.20;99.90;;;;;;5117594;28;20092;-59
2023/04/17 04:55:23;;;;;;;31.67;26.00;;;11.20;99.90;;;;;;5116224;28;20096;-60
2023/04/17 04:57:53;;;;;;;30.00;24.60;;;11.20;99.90;;;;;;5116250;28;20404;-60
2023/04/17 05:00:22;;;;;;;30.58;24.92;;;11.10;99.90;;;;;;5115701;28;20044;-59
2023/04/17 05:02:52;;;;;;;36.10;25.67;;;11.10;99.90;;;;;;5116428;28;20120;-60
2023/04/17 05:05:24;;;;;;;28.73;24.95;;;11.10;99.90;;;;;;5116015;28;20048;-60
2023/04/17 05:07:53;;;;;;;31.15;25.45;;;11.00;99.90;;;;;;5115769;28;20046;-59
2023/04/17 05:10:24;;;;;;;33.40;26.85;;;11.00;99.90;;;;;;5099070;28;20484;-60
2023/04/17 05:12:56;;;;;;;32.22;26.35;;;10.90;99.90;;;;;;5116083;28;20039;-59
2023/04/17 05:15:23;;;;;;;33.25;25.85;;;10.90;99.90;;;;;;5115417;28;20051;-58
2023/04/17 05:17:50;;;;;;;33.30;26.20;;;10.90;99.90;;;;;;5115918;28;20483;-58
2023/04/17 05:20:17;;;;;;;35.83;25.25;;;10.90;99.90;;;;;;5116148;28;20044;-58
2023/04/17 05:22:52;;;;;;;32.63;27.17;;;10.90;99.90;;;;;;5115652;28;20040;-60
2023/04/17 05:25:21;;;;;;;35.55;27.45;;;10.90;99.90;;;;;;5115337;28;20047;-59
2023/04/17 05:27:48;;;;;;;34.40;26.08;;;10.90;99.90;;;;;;5115354;28;20031;-58
2023/04/17 05:30:16;;;;;;;35.22;26.02;;;10.90;99.90;;;;;;5115602;28;20043;-59
2023/04/17 05:32:47;;;;;;;35.67;27.02;;;10.90;99.90;;;;;;5115390;28;20063;-59
2023/04/17 05:35:27;;;;;;;35.75;27.63;;;11.00;99.90;;;;;;5115396;28;20135;-59
2023/04/17 05:37:55;;;;;;;35.28;27.13;;;11.00;99.90;;;;;;5114926;28;20044;-59
2023/04/17 05:40:22;;;;;;;36.10;27.10;;;11.00;99.90;;;;;;5116080;28;20398;-59
2023/04/17 05:42:49;;;;;;;33.25;26.52;;;11.00;99.90;;;;;;5115156;28;20131;-59
2023/04/17 05:45:16;;;;;;;34.70;26.83;;;11.00;99.90;;;;;;5115198;28;20370;-59
2023/04/17 05:47:43;;;;;;;33.20;27.48;;;11.00;99.90;;;;;;5115171;28;20048;-59
2023/04/17 05:50:10;;;;;;;37.28;28.45;;;10.90;99.90;;;;;;5116489;28;20089;-59
2023/04/17 05:52:37;;;;;;;37.50;28.05;;;11.00;99.90;;;;;;5116066;28;20494;-59
2023/04/17 05:55:08;;;;;;;32.33;27.50;;;10.90;99.90;;;;;;5115438;28;20420;-60
2023/04/17 05:57:36;;;;;;;36.90;26.90;;;11.00;99.90;;;;;;5115355;28;20078;-60
2023/04/17 06:00:09;;;;;;;35.15;27.90;;;11.10;99.90;;;;;;5115254;28;20070;-60
2023/04/17 06:02:41;;;;;;;36.63;27.80;;;11.10;99.90;;;;;;5116387;28;20123;-60
2023/04/17 06:05:15;;;;;;;33.72;27.83;;;11.10;99.90;;;;;;5114832;28;20063;-59
2023/04/17 06:07:43;;;;;;;34.55;27.50;;;11.20;99.90;;;;;;5115162;28;20071;-60
2023/04/17 06:10:10;;;;;;;34.67;28.30;;;11.20;99.90;;;;;;5116331;28;20036;-57
2023/04/17 06:12:37;;;;;;;37.05;28.75;;;11.30;99.90;;;;;;5115819;28;20035;-57
2023/04/17 06:15:10;;;;;;;35.97;27.65;;;11.20;99.90;;;;;;5115164;28;20061;-61
2023/04/17 06:17:37;;;;;;;35.28;27.60;;;11.30;99.90;;;;;;5114910;28;20055;-60
2023/04/17 06:20:06;;;;;;;34.17;27.33;;;11.40;99.90;;;;;;5097517;28;20130;-59
2023/04/17 06:22:33;;;;;;;36.60;26.23;;;11.40;99.90;;;;;;5116330;28;20039;-60
2023/04/17 06:25:00;;;;;;;34.55;26.60;;;11.50;99.90;;;;;;5114874;28;20402;-58
2023/04/17 06:27:27;;;;;;;33.08;27.60;;;11.50;99.90;;;;;;5114458;28;20090;-60
2023/04/17 06:29:54;;;;;;;35.58;26.90;;;11.50;99.90;;;;;;5114295;28;20035;-60
2023/04/17 06:32:20;;;;;;;31.95;25.80;;;11.50;99.90;;;;;;5114317;28;20040;-61
2023/04/17 06:34:47;;;;;;;30.70;26.00;;;11.50;99.90;;;;;;5115497;28;20092;-58
2023/04/17 06:37:39;;;;;;;30.88;25.13;;;11.50;99.90;;;;;;5114297;28;20044;-60
2023/04/17 06:40:06;;;;;;;34.05;26.38;;;11.50;99.90;;;;;;5097881;28;20105;-59
2023/04/17 06:42:34;;;;;;;33.78;27.52;;;11.50;99.90;;;;;;5115598;28;20138;-59
2023/04/17 06:45:01;;;;;;;33.53;27.42;;;11.50;99.90;;;;;;5115896;28;20449;-59
2023/04/17 06:47:28;;;;;;;33.67;25.73;;;11.50;99.90;;;;;;5115998;28;20098;-59
2023/04/17 06:49:58;;;;;;;34.03;27.98;;;11.40;99.90;;;;;;5115894;28;20040;-59
2023/04/17 06:52:25;;;;;;;35.35;26.23;;;11.40;99.90;;;;;;5115543;28;20062;-59
2023/04/17 06:54:52;;;;;;;32.70;26.60;;;11.30;99.90;;;;;;5114755;28;20043;-59
2023/04/17 06:57:19;;;;;;;32.88;27.48;;;11.30;99.90;;;;;;5115059;28;20040;-59
2023/04/17 06:59:46;;;;;;;38.13;28.90;;;11.20;99.90;;;;;;5113634;28;20062;-60
2023/04/17 07:02:12;;;;;;;32.70;28.30;;;11.20;99.90;;;;;;5114420;28;20100;-60
2023/04/17 07:04:40;;;;;;;34.40;29.02;;;11.30;99.90;;;;;;5114380;28;20048;-60
2023/04/17 07:07:07;;;;;;;33.88;28.13;;;11.30;99.90;;;;;;5111529;28;20032;-60
2023/04/17 07:09:34;;;;;;;34.78;27.17;;;11.40;99.90;;;;;;5114391;28;20044;-59
2023/04/17 07:12:02;;;;;;;34.83;27.63;;;11.50;99.90;;;;;;5114493;28;20063;-57
2023/04/17 07:14:29;;;;;;;35.75;25.88;;;11.60;99.90;;;;;;5114855;27;20059;-60
2023/04/17 07:16:56;;;;;;;31.27;25.73;;;11.70;99.90;;;;;;5114590;28;20051;-60
2023/04/17 07:19:23;;;;;;;32.33;26.15;;;11.80;99.90;;;;;;5113968;28;20058;-60
2023/04/17 07:21:50;;;;;;;34.55;26.80;;;11.80;99.90;;;;;;5114450;28;20031;-60
2023/04/17 07:24:17;;;;;;;29.88;26.20;;;11.80;99.90;;;;;;5114890;28;20048;-59
2023/04/17 07:26:44;;;;;;;30.50;25.60;;;11.80;99.90;;;;;;5114323;28;20044;-60
2023/04/17 07:29:10;;;;;;;31.27;24.20;;;11.80;99.90;;;;;;5114455;28;20047;-59
2023/04/17 07:31:38;;;;;;;32.60;25.25;;;11.90;99.90;;;;;;5114428;28;20035;-59
2023/04/17 07:34:04;;;;;;;26.98;24.08;;;11.90;99.90;;;;;;5113430;28;20078;-59
2023/04/17 07:36:31;;;;;;;29.50;23.50;;;11.90;99.90;;;;;;5114451;28;20044;-58
2023/04/17 07:38:58;;;;;;;28.70;22.63;;;11.90;99.90;;;;;;5114704;28;20085;-56
2023/04/17 07:41:25;;;;;;;25.85;20.83;;;12.00;99.90;;;;;;5114523;28;20043;-58
2023/04/17 07:43:51;;;;;;;26.80;19.45;;;11.90;99.90;;;;;;5114641;28;20122;-59
2023/04/17 07:46:18;;;;;;;24.08;17.20;;;11.90;99.90;;;;;;5114075;28;20036;-59
2023/04/17 07:48:45;;;;;;;20.10;13.70;;;11.90;99.90;;;;;;5113958;28;20043;-59
2023/04/17 07:51:12;;;;;;;15.38;11.00;;;12.00;99.90;;;;;;5114224;28;20058;-59
2023/04/17 07:53:39;;;;;;;17.42;9.80;;;12.20;99.90;;;;;;5112713;28;20444;-59
2023/04/17 07:56:05;;;;;;;12.95;8.77;;;12.30;99.90;;;;;;5114585;28;20054;-59
2023/04/17 07:58:34;;;;;;;13.55;8.77;;;12.40;99.90;;;;;;5114437;28;20063;-56
2023/04/17 08:01:02;;;;;;;15.05;7.35;;;12.50;99.90;;;;;;5114367;28;20043;-57
2023/04/17 08:03:30;;;;;;;11.23;6.07;;;12.60;99.90;;;;;;5121157;28;20044;-59
2023/04/17 08:05:57;;;;;;;13.43;6.00;;;12.60;99.90;;;;;;5121183;27;20043;-58
2023/04/17 08:08:24;;;;;;;12.48;5.63;;;12.60;99.90;;;;;;5121118;28;20073;-59
2023/04/17 08:10:51;;;;;;;11.57;6.40;;;12.70;99.90;;;;;;5121151;27;20410;-58
2023/04/17 08:13:18;;;;;;;13.80;5.65;;;12.80;99.90;;;;;;5120535;28;20471;-59
2023/04/17 08:15:45;;;;;;;12.23;5.50;;;12.80;99.90;;;;;;5120752;27;20474;-59
2023/04/17 08:18:12;;;;;;;9.02;4.63;;;12.80;99.90;;;;;;5120560;27;20047;-59
2023/04/17 08:20:39;;;;;;;9.80;5.15;;;12.80;99.90;;;;;;5119101;28;20044;-59
2023/04/17 08:23:06;;;;;;;13.25;5.28;;;13.00;99.90;;;;;;5120438;28;20083;-58
2023/04/17 08:25:33;;;;;;;11.65;5.05;;;13.10;99.90;;;;;;5120536;27;20050;-59
2023/04/17 08:27:59;;;;;;;12.63;5.03;;;13.10;99.90;;;;;;5121198;27;20089;-59
2023/04/17 08:30:26;;;;;;;11.32;5.18;;;13.10;99.90;;;;;;5120445;27;20036;-60
2023/04/17 08:32:54;;;;;;;9.82;4.38;;;13.20;99.90;;;;;;5120949;27;20123;-59
2023/04/17 08:35:21;;;;;;;9.38;4.60;;;13.30;99.90;;;;;;5120599;27;20054;-60
2023/04/17 08:37:48;;;;;;;11.00;4.93;;;13.40;99.90;;;;;;5121080;28;20067;-59
2023/04/17 08:40:15;;;;;;;10.20;4.85;;;13.30;99.90;;;;;;5120273;28;20043;-59
2023/04/17 08:42:42;;;;;;;11.52;4.78;;;13.20;99.90;;;;;;5120735;27;20048;-61
2023/04/17 08:45:09;;;;;;;10.02;5.00;;;13.20;99.90;;;;;;5120559;27;20051;-60
2023/04/17 08:47:36;;;;;;;9.38;5.20;;;13.20;99.90;;;;;;5120674;27;20039;-59
2023/04/17 08:50:03;;;;;;;11.63;6.38;;;13.20;99.90;;;;;;5120358;27;20042;-60
2023/04/17 08:52:30;;;;;;;10.60;5.05;;;13.30;99.90;;;;;;5120214;27;20498;-58
2023/04/17 08:54:56;;;;;;;10.88;5.10;;;13.30;99.90;;;;;;5120519;28;20052;-60
2023/04/17 08:57:23;;;;;;;12.48;4.88;;;13.40;99.90;;;;;;5119379;28;20043;-58
2023/04/17 08:59:50;;;;;;;12.15;5.50;;;13.40;99.90;;;;;;5120145;28;20093;-58
2023/04/17 09:02:17;;;;;;;8.25;4.43;;;13.50;99.90;;;;;;5120577;28;20044;-59
2023/04/17 09:04:44;;;;;;;9.27;5.32;;;13.60;99.90;;;;;;5120433;27;20040;-57
2023/04/17 09:07:11;;;;;;;12.52;5.63;;;13.80;99.90;;;;;;5120425;27;20063;-60
2023/04/17 09:09:38;;;;;;;12.07;5.10;;;13.90;99.90;;;;;;5119857;27;20494;-59
2023/04/17 09:12:05;;;;;;;12.90;6.50;;;14.10;99.90;;;;;;5116551;28;20035;-59
2023/04/17 09:14:32;;;;;;;13.25;5.72;;;14.20;99.90;;;;;;5113565;28;20035;-60
2023/04/17 09:16:58;;;;;;;10.25;5.38;;;14.40;99.90;;;;;;5112941;28;20524;-60
2023/04/17 09:19:25;;;;;;;9.27;5.57;;;14.40;99.90;;;;;;5114132;28;20040;-59
2023/04/17 09:21:52;;;;;;;10.95;5.50;;;14.40;99.90;;;;;;5115471;28;20486;-60
2023/04/17 09:24:19;;;;;;;12.75;6.32;;;14.30;99.90;;;;;;5115925;28;20036;-60
2023/04/17 09:26:45;;;;;;;8.68;5.80;;;14.30;99.90;;;;;;5116898;28;20036;-60
2023/04/17 09:29:13;;;;;;;11.20;5.82;;;14.30;99.90;;;;;;5116769;28;20035;-59
2023/04/17 09:31:40;;;;;;;12.68;6.35;;;14.20;99.90;;;;;;5116908;28;20449;-60
2023/04/17 09:34:08;;;;;;;11.80;5.85;;;14.10;99.90;;;;;;5116503;28;20046;-57
2023/04/17 09:36:35;;;;;;;14.43;7.03;;;14.10;99.90;;;;;;5116972;28;20123;-60
2023/04/17 09:39:03;;;;;;;13.27;6.78;;;14.00;99.90;;;;;;5116648;28;20063;-59
2023/04/17 09:41:30;;;;;;;10.90;6.60;;;14.10;99.90;;;;;;5116131;28;20043;-60
2023/04/17 09:44:00;;;;;;;15.27;6.35;;;14.00;99.90;;;;;;5116680;28;20047;-57
2023/04/17 09:46:29;;;;;;;10.25;6.60;;;14.00;99.90;;;;;;5116230;28;20039;-58
2023/04/17 09:48:56;;;;;;;10.23;5.25;;;14.00;99.90;;;;;;5116556;28;20042;-60
2023/04/17 09:51:23;;;;;;;12.43;5.50;;;13.90;99.90;;;;;;5116300;28;20040;-60
2023/04/17 09:53:50;;;;;;;10.88;5.60;;;14.00;99.90;;;;;;5116161;28;20119;-60
2023/04/17 09:56:20;;;;;;;8.68;5.05;;;13.90;99.90;;;;;;5116343;28;20088;-60
2023/04/17 09:58:47;;;;;;;9.90;4.82;;;13.90;99.90;;;;;;5115348;28;20048;-60
2023/04/17 10:01:15;;;;;;;9.68;5.10;;;13.90;99.90;;;;;;5116399;28;20044;-61
2023/04/17 10:03:41;;;;;;;7.93;3.97;;;14.00;99.90;;;;;;5115879;28;20035;-58
2023/04/17 10:06:09;;;;;;;9.57;3.83;;;13.90;99.90;;;;;;5116190;28;20478;-61
2023/04/17 10:08:35;;;;;;;11.13;3.70;;;13.80;99.90;;;;;;5103975;28;20032;-59
2023/04/17 10:11:02;;;;;;;7.32;3.80;;;13.70;99.90;;;;;;5095173;28;20548;-60
2023/04/17 10:13:29;;;;;;;10.43;4.15;;;13.80;99.90;;;;;;5095525;28;20044;-60
2023/04/17 10:15:57;;;;;;;7.72;3.00;;;13.80;99.90;;;;;;5099761;28;20071;-61
2023/04/17 10:18:24;;;;;;;10.35;3.40;;;13.80;99.90;;;;;;5098793;28;20135;-60
2023/04/17 10:20:52;;;;;;;6.72;2.72;;;13.80;99.90;;;;;;5107389;28;20047;-60
2023/04/17 10:23:19;;;;;;;7.22;3.17;;;13.80;99.90;;;;;;5095072;28;20051;-60
2023/04/17 10:25:46;;;;;;;6.50;3.25;;;13.70;99.90;;;;;;5093703;28;20421;-60
2023/04/17 10:28:13;;;;;;;8.90;3.55;;;13.80;99.90;;;;;;5094838;28;20151;-61
2023/04/17 10:30:40;;;;;;;7.07;3.42;;;13.90;99.90;;;;;;5094822;28;20040;-61
2023/04/17 10:33:09;;;;;;;7.97;3.50;;;13.90;99.90;;;;;;5107209;28;20213;-60
2023/04/17 10:35:36;;;;;;;4.95;2.95;;;13.90;99.90;;;;;;5108589;28;20114;-61
2023/04/17 10:38:03;;;;;;;6.72;3.08;;;13.80;99.90;;;;;;5094563;28;20078;-60
2023/04/17 10:40:30;;;;;;;7.15;2.65;;;13.80;99.90;;;;;;5090508;28;20064;-60
2023/04/17 10:42:57;;;;;;;10.25;3.80;;;13.80;99.90;;;;;;5094305;28;20475;-61
2023/04/17 10:45:24;;;;;;;7.93;3.35;;;13.90;99.90;;;;;;5094672;28;20036;-59
2023/04/17 10:47:50;;;;;;;5.50;2.90;;;13.90;99.90;;;;;;5093172;28;20431;-61
2023/04/17 10:50:17;;;;;;;6.10;2.80;;;13.90;99.90;;;;;;5093680;28;20039;-60
2023/04/17 10:52:44;;;;;;;5.38;3.05;;;14.00;99.90;;;;;;5094311;28;20502;-60
2023/04/17 10:55:12;;;;;;;5.40;2.95;;;14.10;99.90;;;;;;5093106;28;20551;-59
2023/04/17 10:57:39;;;;;;;7.35;3.05;;;14.10;99.90;;;;;;5094187;28;20562;-60
2023/04/17 11:00:10;;;;;;;5.70;3.03;;;14.10;99.90;;;;;;5091866;28;20040;-60
2023/04/17 11:02:37;;;;;;;5.68;3.40;;;14.10;99.90;;;;;;5109084;28;20096;-59
2023/04/17 11:05:03;;;;;;;6.53;3.72;;;14.10;99.90;;;;;;5112510;28;20046;-61
2023/04/17 11:07:31;;;;;;;7.75;3.60;;;14.00;99.90;;;;;;5100279;28;20054;-61
2023/04/17 11:09:57;;;;;;;6.65;3.60;;;14.10;99.90;;;;;;5094484;28;20133;-59
2023/04/17 11:12:24;;;;;;;9.88;3.53;;;14.10;99.90;;;;;;5093896;28;20101;-59
2023/04/17 11:14:51;;;;;;;7.53;4.05;;;14.20;99.90;;;;;;5094059;28;20047;-61
2023/04/17 11:17:18;;;;;;;8.05;3.95;;;14.30;99.90;;;;;;5100389;28;20040;-61
2023/04/17 11:19:44;;;;;;;6.57;4.03;;;14.40;99.90;;;;;;5095022;27;20044;-58
2023/04/17 11:22:12;;;;;;;7.88;3.63;;;14.40;99.90;;;;;;5093823;28;20044;-61
2023/04/17 11:24:39;;;;;;;7.30;4.05;;;14.40;99.90;;;;;;5090112;28;20553;-61
2023/04/17 11:27:06;;;;;;;9.95;3.42;;;14.30;99.90;;;;;;5094824;28;20047;-61
2023/04/17 11:29:32;;;;;;;5.68;3.65;;;14.40;99.90;;;;;;5092374;28;20043;-61
2023/04/17 11:32:00;;;;;;;6.50;3.78;;;14.50;99.90;;;;;;5099584;28;20032;-56
2023/04/17 11:34:26;;;;;;;7.43;3.60;;;14.60;99.90;;;;;;5112401;28;20414;-60
2023/04/17 11:36:53;;;;;;;6.78;3.55;;;14.60;99.90;;;;;;5094934;28;20057;-60
2023/04/17 11:39:21;;;;;;;7.18;3.70;;;14.50;99.90;;;;;;5093915;28;20044;-56
2023/04/17 11:41:48;;;;;;;7.15;3.70;;;14.50;99.90;;;;;;5107994;28;20047;-59
2023/04/17 11:44:15;;;;;;;8.73;3.20;;;14.50;99.90;;;;;;5113365;28;20043;-60
2023/04/17 11:46:42;;;;;;;6.80;3.70;;;14.50;99.90;;;;;;5113188;28;20035;-57
2023/04/17 11:49:10;;;;;;;9.07;3.72;;;14.50;99.90;;;;;;5113326;28;20043;-60
2023/04/17 11:51:37;;;;;;;7.82;3.92;;;14.50;99.90;;;;;;5109927;28;20039;-59
2023/04/17 11:54:04;;;;;;;7.82;3.92;;;14.50;99.90;;;;;;5106924;28;20055;-59
2023/04/17 11:56:31;;;;;;;5.82;3.60;;;14.50;99.90;;;;;;5108591;28;20047;-58
2023/04/17 11:58:57;;;;;;;7.10;3.55;;;14.70;99.90;;;;;;5109285;28;20119;-59
2023/04/17 12:01:24;;;;;;;9.57;4.18;;;14.80;99.90;;;;;;5102453;28;20086;-58
2023/04/17 12:03:51;;;;;;;6.10;3.78;;;14.80;99.90;;;;;;5093846;28;20055;-59
2023/04/17 12:06:18;;;;;;;8.35;4.28;;;14.90;99.90;;;;;;5093542;28;20044;-59
2023/04/17 12:08:46;;;;;;;7.00;4.13;;;14.80;99.90;;;;;;5096454;28;20062;-60
2023/04/17 12:11:12;;;;;;;12.40;4.10;;;14.80;99.90;;;;;;5113465;28;20528;-59
2023/04/17 12:13:39;;;;;;;6.32;3.88;;;14.90;99.90;;;;;;5113452;28;20096;-60
2023/04/17 12:16:06;;;;;;;8.20;4.38;;;14.90;99.90;;;;;;5111971;28;20055;-63
2023/04/17 12:18:33;;;;;;;8.32;4.90;;;14.90;99.90;;;;;;5113222;28;20123;-56
2023/04/17 12:20:59;;;;;;;6.63;4.97;;;14.80;99.90;;;;;;5110059;28;20051;-55
2023/04/17 12:23:26;;;;;;;7.90;4.38;;;14.70;99.90;;;;;;5113025;28;20128;-63
2023/04/17 12:25:53;;;;;;;10.75;4.55;;;14.70;99.90;;;;;;5113074;28;20485;-65
2023/04/17 12:28:20;;;;;;;7.78;4.68;;;14.80;99.90;;;;;;5099126;28;20097;-64
2023/04/17 12:30:47;;;;;;;8.23;4.80;;;14.90;99.90;;;;;;5112950;28;20078;-64
2023/04/17 12:33:14;;;;;;;7.63;5.13;;;15.00;99.90;;;;;;5108792;28;20402;-63
2023/04/17 12:35:41;;;;;;;7.90;4.85;;;15.10;99.90;;;;;;5093320;28;20044;-63
2023/04/17 12:38:07;;;;;;;9.50;5.55;;;15.10;99.90;;;;;;5093578;28;20437;-64